Morrisville, Pennsylvania
Current Conditions -  °F | °C
As of 8:53 AM on Wednesday 28 Jan 2015 (Local Time) from KTTN Reporting Station
Clear Clear  
Wind Chill:   Ceiling: Unl
Heat Index: 20°   Visibility: 10mi
Dew Point:   Wind: 14mph
Humidity: 44%   Direction: 320°NW
Pressure: 30.07"   Gusts: 23mph
Location:  40.21°N, 74.79°W
Report Text: KTTN 281353Z 32012G20KT 10SM CLR M07/M17 A3007 RMK AO2 SLP180 T10671172
Loading
Personal Weather Stations






























Interactive Weather Map New forecast layout! Learn more

10-Day Weather Forecast

Advertisements
Track Severe Weather on mobile